Pagrindinis puslapis
METAR-TAF:

METAR-TAF

Oro uostai :

Bovė, Prancūzija

platuma: 49-28N, ilguma: 002-07E, Aukštis: 109 m

Dabartinis oras

Ataskaita buvo paskelbta 14 minutes, ne 04:00 UTC
Vėjas 2 kt iš Šiaurės/Šiaurės Rytų
Temperatūra 7°C
Drėgmė 93%
Slėgis 1020 hPa
Matomumas 10 km arba daugiau
nėra debesų žemiau 1500 m ir nėra kamuolinių lietaus debesų

METAR: LFOB 310400Z AUTO 03002KT CAVOK 07/06 Q1020 NOSIG

Laikas: 06:14 (04:14 UTC)

Prognozė

Ataskaita buvo paskelbta 5 valandos ir 14 minutes, ne 23:00 UTC
Prognozė galioja nuo 31 metu 00 UTC su 31 metu 24 UTC
Vėjas 3 kt nuo kintamojo kryptimis
Matomumas 10 km arba daugiau
nėra debesų žemiau 1500 m ir nėra kamuolinių lietaus debesų
Tapsmas
nuo 31 metu 06 UTC su 31 metu 09 UTC
Vėjas 10 kt iš Rytų

TAF: LFOB 302300Z 3100/3124 VRB03KT CAVOK BECMG 3106/3109 08010KT

Orai ataskaitas ir orų prognozės (METAR, TAF).

turimą stotys yra geltonos ir raudonos taškus žemėlapyje.

Perkelti pele per norėdami pamatyti stoties vardą.

Tada spustelėkite, norėdami matyti oro stebėjimo ir prognozės.

Norėdami pakeisti žemėlapį: spustelėkite ant žalios mygtukų su juodo kryžiaus žemyn,; žalią mygtuką su brūkšneliu, jei norite nutolinti; arba žalių rodyklių gretimoms žemėlapius.


METAR-TAF: